createdAt,value
2019-05-09T00:00:17.233Z,9.33
2019-05-09T00:02:50.297Z,9.24
2019-05-09T00:05:25.034Z,9.25
2019-05-09T00:07:56.129Z,9.24
2019-05-09T00:10:38.559Z,9.25
2019-05-09T00:13:03.338Z,9.20
2019-05-09T00:15:37.266Z,9.18
2019-05-09T00:18:09.203Z,9.11
2019-05-09T00:21:19.001Z,9.08
2019-05-09T00:23:54.017Z,9.02
2019-05-09T00:26:33.950Z,8.94
2019-05-09T00:29:14.395Z,8.85
2019-05-09T00:32:15.239Z,8.79
2019-05-09T00:34:57.326Z,8.75
2019-05-09T00:37:47.867Z,8.64
2019-05-09T00:40:23.709Z,8.64
2019-05-09T00:42:55.062Z,8.65
2019-05-09T00:45:49.651Z,8.60
2019-05-09T00:48:27.761Z,8.59
2019-05-09T00:50:59.825Z,8.60
2019-05-09T00:53:34.499Z,8.56
2019-05-09T00:56:08.270Z,8.68
2019-05-09T00:58:49.427Z,8.64
2019-05-09T01:01:23.726Z,8.67
2019-05-09T01:03:57.346Z,8.67
2019-05-09T01:06:29.306Z,8.65
2019-05-09T01:09:01.229Z,8.66
2019-05-09T01:11:33.465Z,8.70
2019-05-09T01:14:05.486Z,8.76
2019-05-09T01:16:37.484Z,8.76
2019-05-09T01:19:09.461Z,8.78
2019-05-09T01:21:43.674Z,8.81
2019-05-09T01:24:16.525Z,8.87
2019-05-09T01:26:48.559Z,8.88
2019-05-09T01:29:20.505Z,8.92
2019-05-09T01:31:56.719Z,8.98
2019-05-09T01:34:32.968Z,8.99
2019-05-09T01:37:07.126Z,9.06
2019-05-09T01:39:39.073Z,9.10
2019-05-09T01:42:13.741Z,9.12
2019-05-09T01:44:45.911Z,9.30
2019-05-09T01:47:17.869Z,9.43
2019-05-09T01:49:53.857Z,9.46
2019-05-09T01:52:25.895Z,9.47
2019-05-09T01:54:57.891Z,9.44
2019-05-09T01:57:33.775Z,9.51
2019-05-09T02:00:06.147Z,9.55
2019-05-09T02:02:38.093Z,9.51
2019-05-09T02:05:10.200Z,9.40
2019-05-09T02:07:43.821Z,9.35
2019-05-09T02:10:18.498Z,9.37
2019-05-09T02:12:50.449Z,9.40
2019-05-09T02:15:40.010Z,9.47
2019-05-09T02:18:23.077Z,9.48
2019-05-09T02:20:55.121Z,9.54
2019-05-09T02:23:27.071Z,9.53
2019-05-09T02:25:59.320Z,9.46
2019-05-09T02:28:31.267Z,9.41
2019-05-09T02:31:05.148Z,9.46
2019-05-09T02:33:37.088Z,9.40
2019-05-09T02:36:09.887Z,9.30
2019-05-09T02:38:42.015Z,9.38
2019-05-09T02:41:13.964Z,9.35
2019-05-09T02:43:49.262Z,9.37
2019-05-09T02:46:38.316Z,9.38
2019-05-09T02:49:09.174Z,9.40
2019-05-09T02:51:41.075Z,9.39
2019-05-09T02:54:13.031Z,9.46
2019-05-09T02:56:45.019Z,9.44
2019-05-09T02:59:45.431Z,9.46
2019-05-09T03:02:38.421Z,9.46
2019-05-09T03:05:10.511Z,9.45
2019-05-09T03:07:48.923Z,9.45
2019-05-09T03:10:21.584Z,9.45
2019-05-09T03:12:53.532Z,9.47
2019-05-09T03:15:28.820Z,9.46
2019-05-09T03:18:00.130Z,9.50
2019-05-09T03:20:49.494Z,9.49
2019-05-09T03:23:21.564Z,9.48
2019-05-09T03:25:53.521Z,9.48
2019-05-09T03:28:43.929Z,9.50
2019-05-09T03:31:29.977Z,9.45
2019-05-09T03:34:02.244Z,9.41
2019-05-09T03:36:34.195Z,9.31
2019-05-09T03:39:08.199Z,9.31
2019-05-09T03:41:40.104Z,9.26
2019-05-09T03:44:12.086Z,9.15
2019-05-09T03:46:59.557Z,9.06
2019-05-09T03:49:31.482Z,8.99
2019-05-09T03:52:03.441Z,9.00
2019-05-09T03:54:37.475Z,8.94
2019-05-09T03:57:23.383Z,8.93
2019-05-09T03:59:57.260Z,8.92
2019-05-09T04:02:29.221Z,8.92
2019-05-09T04:05:01.217Z,8.88
2019-05-09T04:07:33.189Z,8.86
2019-05-09T04:10:07.551Z,8.85
2019-05-09T04:12:52.828Z,8.78
2019-05-09T04:15:13.028Z,8.77
2019-05-09T04:17:45.026Z,8.76
2019-05-09T04:20:17.609Z,8.64
2019-05-09T04:22:49.766Z,8.66
2019-05-09T04:25:27.425Z,8.61
2019-05-09T04:27:59.459Z,8.66
2019-05-09T04:30:31.422Z,8.64
2019-05-09T04:33:03.388Z,8.65
2019-05-09T04:35:35.338Z,8.75
2019-05-09T04:38:07.504Z,8.90
2019-05-09T04:40:44.911Z,8.93
2019-05-09T04:43:18.812Z,8.93
2019-05-09T04:45:53.442Z,9.10
2019-05-09T04:48:32.169Z,9.18
2019-05-09T04:51:04.819Z,9.22
2019-05-09T04:53:39.319Z,9.27
2019-05-09T04:56:25.067Z,9.33
2019-05-09T04:58:58.334Z,9.42
2019-05-09T05:01:47.821Z,9.50
2019-05-09T05:04:21.201Z,9.58
2019-05-09T05:06:53.155Z,9.67
2019-05-09T05:09:27.571Z,9.74
2019-05-09T05:11:59.030Z,9.82
2019-05-09T05:14:31.008Z,9.90
2019-05-09T05:17:08.471Z,10.03
2019-05-09T05:19:38.363Z,10.33
2019-05-09T05:22:34.919Z,10.66
2019-05-09T05:25:09.247Z,10.85
2019-05-09T05:27:41.436Z,11.69
2019-05-09T05:30:13.508Z,12.34
2019-05-09T05:33:18.457Z,12.94
2019-05-09T05:35:57.381Z,13.51
2019-05-09T05:38:29.347Z,13.90
2019-05-09T05:41:01.336Z,14.31
2019-05-09T05:43:43.423Z,14.41
2019-05-09T05:46:25.495Z,14.59
2019-05-09T05:48:57.901Z,15.28
2019-05-09T05:51:33.654Z,15.72
2019-05-09T05:54:07.439Z,15.67
2019-05-09T05:56:39.512Z,15.07
2019-05-09T05:59:11.572Z,14.71
2019-05-09T06:01:43.607Z,14.30
2019-05-09T06:04:15.556Z,14.24
2019-05-09T06:06:48.095Z,14.05
2019-05-09T06:09:20.411Z,14.12
2019-05-09T06:11:52.394Z,14.46
2019-05-09T06:14:24.368Z,15.09
2019-05-09T06:16:58.549Z,15.72
2019-05-09T06:19:30.237Z,15.74
2019-05-09T06:22:02.207Z,15.45
2019-05-09T06:24:34.167Z,15.16
2019-05-09T06:27:09.875Z,14.93
2019-05-09T06:29:40.251Z,14.65
2019-05-09T06:32:12.232Z,14.51
2019-05-09T06:34:44.192Z,14.38
2019-05-09T06:37:41.713Z,14.32
2019-05-09T06:40:21.402Z,14.25
2019-05-09T06:42:53.079Z,13.98
2019-05-09T06:45:41.757Z,13.93
2019-05-09T06:48:14.727Z,13.80
2019-05-09T06:50:48.315Z,13.72
2019-05-09T06:53:20.459Z,13.48
2019-05-09T06:55:52.401Z,13.41
2019-05-09T06:58:30.547Z,13.32
2019-05-09T07:01:13.081Z,13.42
2019-05-09T07:03:47.953Z,13.41
2019-05-09T07:06:28.401Z,13.60
2019-05-09T07:09:08.460Z,14.37
2019-05-09T07:11:40.481Z,15.24
2019-05-09T07:14:33.477Z,15.64
2019-05-09T07:17:07.955Z,15.96
2019-05-09T07:19:43.134Z,15.88
2019-05-09T07:22:51.180Z,15.85
2019-05-09T07:25:48.612Z,16.47
2019-05-09T07:28:20.598Z,17.05
2019-05-09T07:31:13.919Z,17.86
2019-05-09T07:33:50.139Z,18.68
2019-05-09T07:36:22.398Z,19.44
2019-05-09T07:38:54.391Z,19.49
2019-05-09T07:41:28.203Z,19.61
2019-05-09T07:44:00.275Z,19.47
2019-05-09T07:46:33.518Z,19.20
2019-05-09T07:49:11.731Z,18.82
2019-05-09T07:51:43.700Z,18.20
2019-05-09T07:54:23.301Z,17.54
2019-05-09T07:56:49.530Z,17.07
2019-05-09T07:59:21.505Z,16.73
2019-05-09T08:01:53.447Z,16.36
2019-05-09T08:04:28.348Z,16.19
2019-05-09T08:06:59.359Z,15.94
2019-05-09T08:09:31.364Z,15.56
2019-05-09T08:12:03.308Z,15.24
2019-05-09T08:14:37.527Z,15.10
2019-05-09T08:17:09.172Z,14.94
2019-05-09T08:19:41.156Z,14.96
2019-05-09T08:22:13.123Z,14.84
2019-05-09T08:24:45.103Z,14.70
2019-05-09T08:27:17.579Z,14.65
2019-05-09T08:29:49.748Z,14.66
2019-05-09T08:32:21.702Z,14.56
2019-05-09T08:34:53.719Z,14.47
2019-05-09T08:37:28.074Z,14.35
2019-05-09T08:39:59.589Z,14.37
2019-05-09T08:42:31.517Z,14.35
2019-05-09T08:45:03.652Z,14.33
2019-05-09T08:47:37.981Z,14.27
2019-05-09T08:50:17.610Z,14.27
2019-05-09T08:52:49.768Z,14.25
2019-05-09T08:55:21.747Z,14.13
2019-05-09T08:57:53.772Z,14.03
2019-05-09T09:00:28.041Z,13.93
2019-05-09T09:02:59.634Z,13.89
2019-05-09T09:05:31.609Z,13.84
2019-05-09T09:08:03.629Z,13.86
2019-05-09T09:10:38.067Z,14.00
2019-05-09T09:13:09.534Z,13.92
2019-05-09T09:16:12.125Z,13.81
2019-05-09T09:18:17.727Z,13.60
2019-05-09T09:20:49.338Z,13.47
2019-05-09T09:23:21.291Z,13.36
2019-05-09T09:25:53.263Z,13.33
2019-05-09T09:28:27.518Z,13.21
2019-05-09T09:30:59.236Z,13.15
2019-05-09T09:33:31.369Z,13.00
2019-05-09T09:36:03.387Z,13.05
2019-05-09T09:38:37.482Z,12.99
2019-05-09T09:41:09.305Z,12.85
2019-05-09T09:43:41.215Z,12.80
2019-05-09T09:46:14.799Z,12.75
2019-05-09T09:48:48.028Z,12.67
2019-05-09T09:51:20.325Z,12.65
2019-05-09T09:53:52.307Z,12.59
2019-05-09T09:56:24.277Z,12.52
2019-05-09T09:59:15.773Z,12.59
2019-05-09T10:01:48.425Z,12.47
2019-05-09T10:04:24.204Z,12.38
2019-05-09T10:06:54.361Z,12.33
2019-05-09T10:09:26.525Z,12.30
2019-05-09T10:12:00.731Z,12.32
2019-05-09T10:14:35.418Z,12.25
2019-05-09T10:17:29.980Z,12.23
2019-05-09T10:20:09.255Z,12.38
2019-05-09T10:22:46.764Z,12.48
2019-05-09T10:25:15.155Z,12.67
2019-05-09T10:27:48.043Z,12.92
2019-05-09T10:30:30.545Z,13.14
2019-05-09T10:33:02.495Z,13.46
2019-05-09T10:35:34.459Z,13.74
2019-05-09T10:38:08.710Z,14.06
2019-05-09T10:40:40.548Z,14.34
2019-05-09T10:43:38.852Z,14.51
2019-05-09T10:46:48.302Z,14.92
2019-05-09T10:49:08.434Z,14.99
2019-05-09T10:51:40.782Z,14.93
2019-05-09T10:54:12.753Z,14.95
2019-05-09T10:56:44.758Z,15.04
2019-05-09T10:59:18.360Z,15.32
2019-05-09T11:01:50.580Z,15.36
2019-05-09T11:04:22.584Z,15.52
2019-05-09T11:06:54.605Z,15.75
2019-05-09T11:09:29.107Z,16.03
2019-05-09T11:12:01.382Z,16.31
2019-05-09T11:14:37.464Z,16.39
2019-05-09T11:17:15.904Z,16.34
2019-05-09T11:19:41.310Z,16.20
2019-05-09T11:22:13.321Z,16.24
2019-05-09T11:24:49.779Z,15.88
2019-05-09T11:27:19.175Z,15.82
2019-05-09T11:29:51.348Z,15.88
2019-05-09T11:32:23.346Z,15.79
2019-05-09T11:34:57.538Z,15.78
2019-05-09T11:37:29.302Z,15.86
2019-05-09T11:40:01.297Z,16.06
2019-05-09T11:42:33.647Z,16.02
2019-05-09T11:45:07.672Z,16.20
2019-05-09T11:47:46.224Z,16.38
2019-05-09T11:50:13.837Z,16.38
2019-05-09T11:52:45.809Z,16.28
2019-05-09T11:55:29.637Z,16.16
2019-05-09T11:57:51.762Z,16.12
2019-05-09T12:00:23.768Z,15.97
2019-05-09T12:02:57.988Z,16.00
2019-05-09T12:05:29.645Z,15.90
2019-05-09T12:08:01.629Z,15.78
2019-05-09T12:10:33.601Z,15.65
2019-05-09T12:13:05.621Z,15.63
2019-05-09T12:15:39.020Z,15.52
2019-05-09T12:18:11.775Z,15.54
2019-05-09T12:20:43.892Z,15.38
2019-05-09T12:23:15.900Z,15.31
2019-05-09T12:25:47.871Z,15.22
2019-05-09T12:28:19.871Z,15.13
2019-05-09T12:30:51.881Z,15.00
2019-05-09T12:33:23.918Z,14.84
2019-05-09T12:35:58.622Z,14.54
2019-05-09T12:38:29.816Z,14.25
2019-05-09T12:41:01.827Z,14.09
2019-05-09T12:43:33.881Z,14.03
2019-05-09T12:46:08.632Z,13.95
2019-05-09T12:48:39.866Z,13.83
2019-05-09T12:51:11.844Z,13.81
2019-05-09T12:53:43.855Z,13.75
2019-05-09T12:56:18.501Z,13.72
2019-05-09T12:58:49.770Z,13.81
2019-05-09T13:01:21.760Z,13.77
2019-05-09T13:03:53.742Z,13.83
2019-05-09T13:06:28.887Z,13.86
2019-05-09T13:08:59.645Z,13.92
2019-05-09T13:11:31.617Z,13.98
2019-05-09T13:14:03.630Z,14.16
2019-05-09T13:16:49.112Z,14.28
2019-05-09T13:19:18.513Z,14.36
2019-05-09T13:21:50.710Z,14.46
2019-05-09T13:24:22.833Z,14.42
2019-05-09T13:26:54.851Z,14.38
2019-05-09T13:29:26.839Z,14.33
2019-05-09T13:31:58.808Z,14.38
2019-05-09T13:34:30.931Z,14.42
2019-05-09T13:37:02.929Z,14.40
2019-05-09T13:39:35.007Z,14.43
2019-05-09T13:42:08.244Z,14.39
2019-05-09T13:44:41.589Z,14.46
2019-05-09T13:47:13.785Z,14.45
2019-05-09T13:49:45.833Z,14.53
2019-05-09T13:52:18.125Z,14.41
2019-05-09T13:54:50.217Z,14.29
2019-05-09T13:57:22.240Z,14.22
2019-05-09T13:59:54.300Z,14.15
2019-05-09T14:02:28.547Z,14.13
2019-05-09T14:05:00.163Z,14.16
2019-05-09T14:07:32.126Z,14.15
2019-05-09T14:10:04.687Z,14.25
2019-05-09T14:12:37.990Z,14.10
2019-05-09T14:15:10.300Z,14.11
2019-05-09T14:17:49.688Z,14.03
2019-05-09T14:20:18.070Z,14.01
2019-05-09T14:22:50.170Z,14.00
2019-05-09T14:25:22.195Z,14.09
2019-05-09T14:27:54.154Z,13.90
2019-05-09T14:30:27.553Z,13.82
2019-05-09T14:33:00.449Z,13.58
2019-05-09T14:35:32.508Z,13.48
2019-05-09T14:38:04.733Z,13.21
2019-05-09T14:40:37.407Z,13.14
2019-05-09T14:43:10.615Z,13.17
2019-05-09T14:45:42.809Z,13.16
2019-05-09T14:48:14.901Z,13.12
2019-05-09T14:50:47.021Z,13.17
2019-05-09T14:53:19.388Z,13.24
2019-05-09T14:55:51.437Z,13.40
2019-05-09T14:58:23.464Z,13.33
2019-05-09T15:00:59.241Z,13.43
2019-05-09T15:03:29.397Z,13.37
2019-05-09T15:06:01.462Z,13.41
2019-05-09T15:08:33.444Z,13.42
2019-05-09T15:11:05.459Z,13.38
2019-05-09T15:13:37.467Z,13.40
2019-05-09T15:16:09.476Z,13.34
2019-05-09T15:18:41.479Z,13.32
2019-05-09T15:21:13.489Z,13.43
2019-05-09T15:23:47.987Z,13.50
2019-05-09T15:26:19.489Z,13.54
2019-05-09T15:28:51.508Z,13.56
2019-05-09T15:31:23.561Z,13.71
2019-05-09T15:33:55.554Z,13.69
2019-05-09T15:36:27.620Z,13.78
2019-05-09T15:38:59.647Z,13.82
2019-05-09T15:41:31.658Z,13.69
2019-05-09T15:44:03.710Z,13.72
2019-05-09T15:46:49.029Z,13.67
2019-05-09T15:49:21.114Z,13.60
2019-05-09T15:51:53.121Z,13.40
2019-05-09T15:54:25.111Z,13.14
2019-05-09T15:56:58.082Z,13.13
2019-05-09T15:59:30.264Z,13.06
2019-05-09T16:02:02.255Z,13.07
2019-05-09T16:04:34.307Z,13.14
2019-05-09T16:07:06.295Z,13.11
2019-05-09T16:09:38.377Z,13.22
2019-05-09T16:12:10.382Z,13.19
2019-05-09T16:14:42.386Z,13.15
2019-05-09T16:17:14.606Z,13.00
2019-05-09T16:19:48.310Z,13.14
2019-05-09T16:22:20.454Z,13.16
2019-05-09T16:24:52.495Z,13.13
2019-05-09T16:27:24.726Z,13.12
2019-05-09T16:29:57.995Z,13.12
2019-05-09T16:32:30.197Z,13.37
2019-05-09T16:35:02.210Z,13.41
2019-05-09T16:37:56.340Z,13.38
2019-05-09T16:40:08.647Z,13.40
2019-05-09T16:42:40.834Z,13.46
2019-05-09T16:45:12.952Z,13.47
2019-05-09T16:47:44.971Z,13.60
2019-05-09T16:50:18.024Z,13.47
2019-05-09T16:52:50.140Z,13.35
2019-05-09T16:55:31.179Z,13.31
2019-05-09T16:58:01.580Z,13.41
2019-05-09T17:00:40.009Z,13.45
2019-05-09T17:03:12.070Z,13.46
2019-05-09T17:05:44.112Z,13.40
2019-05-09T17:08:17.832Z,13.34
2019-05-09T17:10:50.022Z,13.45
2019-05-09T17:13:22.025Z,13.45
2019-05-09T17:15:54.093Z,13.51
2019-05-09T17:18:28.397Z,13.56
2019-05-09T17:21:24.487Z,13.61
2019-05-09T17:23:58.363Z,13.71
2019-05-09T17:26:30.564Z,13.73
2019-05-09T17:29:02.616Z,13.82
2019-05-09T17:31:34.645Z,13.80
2019-05-09T17:34:06.648Z,13.72
2019-05-09T17:36:38.702Z,13.68
2019-05-09T17:39:10.728Z,13.56
2019-05-09T17:41:42.766Z,13.60
2019-05-09T17:44:14.797Z,13.51
2019-05-09T17:46:48.012Z,13.43
2019-05-09T17:49:20.281Z,13.37
2019-05-09T17:51:52.384Z,13.44
2019-05-09T17:54:24.404Z,13.41
2019-05-09T17:56:57.313Z,13.41
2019-05-09T17:59:29.548Z,13.37
2019-05-09T18:02:01.582Z,13.39
2019-05-09T18:04:33.559Z,13.29
2019-05-09T18:07:08.520Z,13.23
2019-05-09T18:09:39.599Z,13.30
2019-05-09T18:12:11.604Z,13.22
2019-05-09T18:14:43.633Z,13.27
2019-05-09T18:17:17.851Z,13.24
2019-05-09T18:19:49.848Z,13.45
2019-05-09T18:22:21.938Z,13.33
2019-05-09T18:24:54.069Z,13.26
2019-05-09T18:27:27.444Z,13.32
2019-05-09T18:29:59.666Z,13.32
2019-05-09T18:32:47.637Z,13.34
2019-05-09T18:35:21.228Z,13.25
2019-05-09T18:37:53.373Z,13.15
2019-05-09T18:40:28.017Z,13.13
2019-05-09T18:42:59.448Z,12.97
2019-05-09T18:45:31.519Z,12.86
2019-05-09T18:48:03.614Z,12.73
2019-05-09T18:50:35.840Z,12.75
2019-05-09T18:53:07.837Z,12.66
2019-05-09T18:55:40.014Z,12.65
2019-05-09T18:58:11.993Z,12.63
2019-05-09T19:00:44.051Z,12.65
2019-05-09T19:03:16.047Z,12.52
2019-05-09T19:05:48.100Z,12.41
2019-05-09T19:08:20.134Z,12.31
2019-05-09T19:10:52.574Z,12.23
2019-05-09T19:13:24.679Z,12.15
2019-05-09T19:16:15.076Z,12.10
2019-05-09T19:19:01.550Z,12.10
2019-05-09T19:21:37.339Z,12.07
2019-05-09T19:24:09.354Z,12.05
2019-05-09T19:26:41.507Z,12.02
2019-05-09T19:29:13.509Z,12.05
2019-05-09T19:31:45.590Z,12.01
2019-05-09T19:34:17.585Z,11.93
2019-05-09T19:36:49.652Z,11.90
2019-05-09T19:39:21.763Z,11.91
2019-05-09T19:41:53.791Z,11.90
2019-05-09T19:44:25.859Z,11.98
2019-05-09T19:47:01.276Z,11.92
2019-05-09T19:49:31.842Z,11.90
2019-05-09T19:52:03.893Z,11.87
2019-05-09T19:54:35.898Z,11.91
2019-05-09T19:57:07.989Z,11.89
2019-05-09T19:59:40.036Z,11.88
2019-05-09T20:02:12.114Z,11.86
2019-05-09T20:04:44.318Z,11.79
2019-05-09T20:07:19.202Z,11.79
2019-05-09T20:09:57.523Z,11.77
2019-05-09T20:12:45.103Z,11.77
2019-05-09T20:15:18.469Z,11.77
2019-05-09T20:17:50.527Z,11.77
2019-05-09T20:20:22.553Z,11.72
2019-05-09T20:22:54.901Z,11.71
2019-05-09T20:25:27.182Z,11.77
2019-05-09T20:27:59.335Z,11.75
2019-05-09T20:30:31.641Z,11.88
2019-05-09T20:33:03.689Z,11.90
2019-05-09T20:35:35.722Z,11.78
2019-05-09T20:38:07.753Z,11.82
2019-05-09T20:40:39.712Z,11.85
2019-05-09T20:43:11.811Z,11.86
2019-05-09T20:45:43.781Z,11.79
2019-05-09T20:48:15.803Z,11.77
2019-05-09T20:50:47.782Z,11.84
2019-05-09T20:53:19.800Z,11.89
2019-05-09T20:55:51.765Z,11.80
2019-05-09T20:58:23.749Z,11.79
2019-05-09T21:00:55.796Z,11.75
2019-05-09T21:03:27.764Z,11.83
2019-05-09T21:05:59.819Z,11.91
2019-05-09T21:08:32.271Z,11.90
2019-05-09T21:11:04.242Z,11.82
2019-05-09T21:13:48.060Z,11.82
2019-05-09T21:16:10.227Z,11.85
2019-05-09T21:18:42.277Z,11.79
2019-05-09T21:21:14.276Z,11.77
2019-05-09T21:23:46.284Z,11.93
2019-05-09T21:26:18.271Z,11.92
2019-05-09T21:28:50.297Z,12.00
2019-05-09T21:31:22.321Z,12.04
2019-05-09T21:33:54.300Z,11.97
2019-05-09T21:36:26.306Z,11.90
2019-05-09T21:38:58.272Z,11.90
2019-05-09T21:41:30.488Z,11.91
2019-05-09T21:44:02.572Z,11.87
2019-05-09T21:46:34.626Z,11.78
2019-05-09T21:49:06.638Z,11.82
2019-05-09T21:51:38.692Z,11.75
2019-05-09T21:54:10.650Z,11.76
2019-05-09T21:56:42.637Z,11.71
2019-05-09T21:59:14.642Z,11.67
2019-05-09T22:01:46.651Z,11.58
2019-05-09T22:04:18.733Z,11.55
2019-05-09T22:06:50.785Z,11.48
2019-05-09T22:09:22.859Z,11.47
2019-05-09T22:11:54.865Z,11.47
2019-05-09T22:14:26.810Z,11.52
2019-05-09T22:17:03.226Z,11.49
2019-05-09T22:19:35.200Z,11.49
2019-05-09T22:22:07.189Z,11.27
2019-05-09T22:24:39.243Z,11.23
2019-05-09T22:27:11.221Z,11.25
2019-05-09T22:29:43.191Z,11.22
2019-05-09T22:32:15.267Z,11.14
2019-05-09T22:34:47.217Z,11.08
2019-05-09T22:37:19.198Z,11.24
2019-05-09T22:39:51.161Z,11.09
2019-05-09T22:42:23.187Z,11.03
2019-05-09T22:44:55.196Z,10.93
2019-05-09T22:47:31.426Z,10.95
2019-05-09T22:50:03.764Z,10.92
2019-05-09T22:52:37.801Z,11.05
2019-05-09T22:55:09.897Z,10.94
2019-05-09T22:57:41.922Z,10.97
2019-05-09T23:00:14.090Z,11.04
2019-05-09T23:02:46.147Z,11.17
2019-05-09T23:05:18.274Z,11.02
2019-05-09T23:07:50.252Z,10.91
2019-05-09T23:10:22.238Z,10.87
2019-05-09T23:12:54.206Z,10.87
2019-05-09T23:15:26.157Z,10.85
2019-05-09T23:17:58.240Z,10.89
2019-05-09T23:20:47.551Z,10.89
2019-05-09T23:23:31.191Z,11.01
2019-05-09T23:26:03.140Z,10.96
2019-05-09T23:28:35.171Z,10.86
2019-05-09T23:31:10.843Z,10.90
2019-05-09T23:33:42.968Z,10.85
2019-05-09T23:36:14.916Z,10.92
2019-05-09T23:39:05.313Z,10.94
2019-05-09T23:41:37.256Z,10.95
2019-05-09T23:44:09.229Z,10.95
2019-05-09T23:46:41.416Z,10.89
2019-05-09T23:49:13.406Z,10.97
2019-05-09T23:51:46.057Z,10.94
2019-05-09T23:54:46.129Z,10.92
2019-05-09T23:57:29.840Z,10.92
